Time;durP1;ratioP1;P1;durP2;ratioP2;P2;SDS_P1;SDS_P2;PMS_P1;PMS_P2;Temp;Humidity;BMP_temperature;BMP_pressure;BME280_temperature;BME280_humidity;BME280_pressure;Samples;Min_cycle;Max_cycle;Signal;HPM_P1;HPM_P2
2023/05/19 00:02:32;;;;;;;5.38;3.20;;;;;;;;;;10393836;28;20029;-57
2023/05/19 00:07:37;;;;;;;4.15;3.08;;;;;;;;;;10384005;28;20075;-57
2023/05/19 00:12:37;;;;;;;5.70;3.42;;;;;;;;;;10404224;28;20461;-55
2023/05/19 00:17:41;;;;;;;6.22;2.90;;;;;;;;;;10397985;28;20030;-56
2023/05/19 00:22:43;;;;;;;13.38;3.67;;;;;;;;;;10369411;28;20095;-56
2023/05/19 00:27:44;;;;;;;7.53;2.97;;;;;;;;;;10403363;28;20032;-58
2023/05/19 00:32:44;;;;;;;4.20;2.90;;;;;;;;;;10404137;28;20034;-58
2023/05/19 00:37:45;;;;;;;7.73;3.47;;;;;;;;;;10394093;28;20493;-58
2023/05/19 00:42:45;;;;;;;5.28;3.10;;;;;;;;;;10403374;28;20478;-58
2023/05/19 00:48:06;;;;;;;4.07;3.28;;;;;;;;;;10404304;28;20504;-57
2023/05/19 00:53:07;;;;;;;5.97;3.35;;;;;;;;;;10278762;28;20051;-57
2023/05/19 00:58:09;;;;;;;5.20;3.22;;;;;;;;;;10278413;28;20054;-57
2023/05/19 01:03:10;;;;;;;4.32;3.00;;;;;;;;;;10262642;28;20071;-58
2023/05/19 01:08:10;;;;;;;5.93;3.22;;;;;;;;;;10278054;28;20619;-57
2023/05/19 01:13:11;;;;;;;3.83;3.33;;;;;;;;;;10276177;28;20105;-57
2023/05/19 01:18:15;;;;;;;4.97;2.97;;;;;;;;;;10265346;28;20039;-57
2023/05/19 01:23:48;;;;;;;3.88;3.17;;;;;;;;;;10283890;28;20039;-58
2023/05/19 01:29:08;;;;;;;4.97;3.20;;;;;;;;;;10338291;28;20519;-57
2023/05/19 01:34:11;;;;;;;4.82;3.10;;;;;;;;;;10390117;28;20040;-56
2023/05/19 01:39:12;;;;;;;5.18;3.22;;;;;;;;;;10383657;28;20069;-60
2023/05/19 01:44:13;;;;;;;4.43;3.42;;;;;;;;;;10391273;28;20025;-60
2023/05/19 01:49:13;;;;;;;5.60;3.45;;;;;;;;;;10381329;28;20042;-60
2023/05/19 01:54:14;;;;;;;6.45;3.35;;;;;;;;;;10391341;28;20026;-57
2023/05/19 01:59:38;;;;;;;10.25;3.33;;;;;;;;;;10383385;28;20029;-57
2023/05/19 02:04:47;;;;;;;6.70;3.20;;;;;;;;;;10364474;28;20046;-56
2023/05/19 02:09:58;;;;;;;4.25;3.38;;;;;;;;;;10395649;28;20025;-57
2023/05/19 02:15:12;;;;;;;9.32;3.38;;;;;;;;;;10402515;28;20095;-56
2023/05/19 02:20:14;;;;;;;5.85;3.22;;;;;;;;;;10402816;28;20030;-57
2023/05/19 02:25:14;;;;;;;3.45;3.08;;;;;;;;;;10389248;28;20018;-57
2023/05/19 02:30:15;;;;;;;4.72;3.30;;;;;;;;;;10393228;28;20018;-56
2023/05/19 02:35:16;;;;;;;6.40;3.22;;;;;;;;;;10410146;28;20021;-56
2023/05/19 02:40:17;;;;;;;6.88;3.58;;;;;;;;;;10410317;28;20029;-57
2023/05/19 02:45:17;;;;;;;4.22;3.55;;;;;;;;;;10407725;28;20025;-56
2023/05/19 02:50:18;;;;;;;5.27;3.23;;;;;;;;;;10391952;28;20133;-56
2023/05/19 02:55:18;;;;;;;5.20;3.30;;;;;;;;;;10397450;28;20474;-57
2023/05/19 03:00:19;;;;;;;5.20;3.50;;;;;;;;;;10393182;28;20124;-57
2023/05/19 03:05:19;;;;;;;8.95;2.95;;;;;;;;;;10403665;28;20043;-57
2023/05/19 03:10:20;;;;;;;4.70;3.43;;;;;;;;;;10402454;28;20427;-57
2023/05/19 03:15:22;;;;;;;5.03;3.37;;;;;;;;;;10396642;28;20458;-57
2023/05/19 03:20:23;;;;;;;3.75;3.28;;;;;;;;;;10401237;28;20495;-56
2023/05/19 03:25:23;;;;;;;4.72;3.05;;;;;;;;;;10407439;28;20029;-56
2023/05/19 03:30:24;;;;;;;8.43;3.60;;;;;;;;;;10395921;28;20071;-55
2023/05/19 03:35:24;;;;;;;4.53;3.17;;;;;;;;;;10400463;28;20025;-55
2023/05/19 03:40:25;;;;;;;5.70;3.25;;;;;;;;;;10408750;28;20033;-56
2023/05/19 03:45:25;;;;;;;6.07;3.27;;;;;;;;;;10396245;28;20026;-55
2023/05/19 03:50:27;;;;;;;11.02;3.53;;;;;;;;;;10404511;28;20467;-55
2023/05/19 03:55:28;;;;;;;3.50;3.20;;;;;;;;;;10407899;28;20021;-56
2023/05/19 04:00:29;;;;;;;6.43;3.65;;;;;;;;;;10407749;28;20017;-55
2023/05/19 04:05:29;;;;;;;9.90;3.27;;;;;;;;;;10405925;28;20573;-56
2023/05/19 04:10:30;;;;;;;5.00;3.50;;;;;;;;;;10400339;28;20530;-55
2023/05/19 04:15:30;;;;;;;3.40;3.03;;;;;;;;;;10406511;28;20024;-56
2023/05/19 04:20:30;;;;;;;7.03;3.20;;;;;;;;;;10405252;28;20466;-57
2023/05/19 04:25:32;;;;;;;5.07;3.30;;;;;;;;;;10393636;28;20451;-57
2023/05/19 04:30:33;;;;;;;5.03;3.95;;;;;;;;;;10405891;28;20465;-56
2023/05/19 04:35:33;;;;;;;6.68;3.67;;;;;;;;;;10396484;28;20029;-57
2023/05/19 04:40:34;;;;;;;5.13;3.05;;;;;;;;;;10399660;28;20034;-57
2023/05/19 04:45:36;;;;;;;5.95;3.60;;;;;;;;;;10404611;28;20026;-57
2023/05/19 04:50:37;;;;;;;3.95;3.30;;;;;;;;;;10394927;28;20044;-57
2023/05/19 04:55:37;;;;;;;5.50;3.22;;;;;;;;;;10406153;28;20048;-57
2023/05/19 05:00:38;;;;;;;5.33;3.50;;;;;;;;;;10400789;28;20029;-55
2023/05/19 05:05:38;;;;;;;8.07;3.50;;;;;;;;;;10395799;28;20474;-57
2023/05/19 05:10:39;;;;;;;6.03;3.28;;;;;;;;;;10398369;28;20455;-57
2023/05/19 05:15:39;;;;;;;7.63;3.90;;;;;;;;;;10383791;28;20034;-56
2023/05/19 05:20:41;;;;;;;4.93;3.45;;;;;;;;;;10403088;28;20033;-57
2023/05/19 05:25:42;;;;;;;6.13;3.67;;;;;;;;;;10400787;28;20128;-58
2023/05/19 05:30:43;;;;;;;4.05;3.50;;;;;;;;;;10400518;28;20025;-55
2023/05/19 05:35:45;;;;;;;6.15;3.72;;;;;;;;;;10399355;28;20029;-56
2023/05/19 05:40:45;;;;;;;9.75;3.85;;;;;;;;;;10397055;28;20026;-57
2023/05/19 05:45:46;;;;;;;9.63;3.97;;;;;;;;;;10396352;28;20449;-57
2023/05/19 05:50:47;;;;;;;8.95;3.20;;;;;;;;;;10397457;28;20475;-60
2023/05/19 05:55:48;;;;;;;4.85;3.42;;;;;;;;;;10405147;28;20018;-58
2023/05/19 06:00:50;;;;;;;15.95;3.25;;;;;;;;;;10401235;28;20401;-58
2023/05/19 06:05:50;;;;;;;5.53;2.95;;;;;;;;;;10409526;28;20253;-57
2023/05/19 06:10:51;;;;;;;7.15;3.20;;;;;;;;;;10407101;28;20303;-58
2023/05/19 06:15:51;;;;;;;32.10;3.83;;;;;;;;;;10410668;28;20034;-57
2023/05/19 06:20:52;;;;;;;7.82;3.20;;;;;;;;;;10410594;28;20486;-58
2023/05/19 06:25:52;;;;;;;12.50;3.53;;;;;;;;;;10398263;28;20592;-57
2023/05/19 06:30:53;;;;;;;6.13;3.90;;;;;;;;;;10410974;28;20025;-57
2023/05/19 06:35:53;;;;;;;4.30;2.87;;;;;;;;;;10397313;28;20477;-58
2023/05/19 06:40:53;;;;;;;5.63;3.00;;;;;;;;;;10398546;28;20467;-57
2023/05/19 06:45:54;;;;;;;7.50;3.08;;;;;;;;;;10405645;28;20058;-57
2023/05/19 06:50:55;;;;;;;4.53;3.05;;;;;;;;;;10409714;28;20041;-57
2023/05/19 06:55:55;;;;;;;5.60;2.63;;;;;;;;;;10392679;28;20254;-59
2023/05/19 07:00:56;;;;;;;4.80;2.63;;;;;;;;;;10404771;28;20030;-58
2023/05/19 07:05:56;;;;;;;3.43;2.40;;;;;;;;;;10378711;28;20026;-58
2023/05/19 07:10:56;;;;;;;3.42;2.65;;;;;;;;;;10392421;28;21015;-62
2023/05/19 07:15:57;;;;;;;4.57;2.90;;;;;;;;;;10408603;28;20025;-60
2023/05/19 07:20:58;;;;;;;6.40;3.00;;;;;;;;;;10395832;28;20459;-60
2023/05/19 07:25:58;;;;;;;5.78;2.95;;;;;;;;;;10403942;28;20026;-58
2023/05/19 07:30:59;;;;;;;5.90;3.00;;;;;;;;;;10409441;28;20052;-57
2023/05/19 07:36:00;;;;;;;3.08;2.78;;;;;;;;;;10395367;28;20502;-58
2023/05/19 07:41:01;;;;;;;3.63;2.58;;;;;;;;;;10394665;28;20034;-58
2023/05/19 07:46:02;;;;;;;5.72;2.88;;;;;;;;;;10407278;28;20072;-58
2023/05/19 07:51:02;;;;;;;5.03;2.88;;;;;;;;;;10407211;28;20508;-57
2023/05/19 07:56:03;;;;;;;7.53;3.13;;;;;;;;;;10406932;28;20041;-57
2023/05/19 08:01:04;;;;;;;4.15;2.50;;;;;;;;;;10406971;28;20037;-59
2023/05/19 08:06:04;;;;;;;6.07;2.63;;;;;;;;;;10406006;28;20033;-57
2023/05/19 08:11:05;;;;;;;3.87;2.93;;;;;;;;;;10399406;28;20447;-58
2023/05/19 08:16:06;;;;;;;5.38;2.45;;;;;;;;;;10405980;28;20861;-57
2023/05/19 08:21:06;;;;;;;3.83;2.72;;;;;;;;;;10405241;28;20026;-57
2023/05/19 08:26:06;;;;;;;4.72;2.80;;;;;;;;;;10405330;28;20420;-58
2023/05/19 08:31:07;;;;;;;3.90;2.90;;;;;;;;;;10406110;28;20377;-58
2023/05/19 08:36:07;;;;;;;7.25;2.80;;;;;;;;;;10406666;28;20025;-57
2023/05/19 08:41:08;;;;;;;3.03;2.63;;;;;;;;;;10404998;28;20043;-58
2023/05/19 08:46:12;;;;;;;4.03;2.72;;;;;;;;;;10406565;28;20465;-57
2023/05/19 08:51:42;;;;;;;5.80;2.40;;;;;;;;;;10405110;28;20096;-58
2023/05/19 08:56:44;;;;;;;3.25;2.20;;;;;;;;;;10403845;28;20182;-58
2023/05/19 09:01:45;;;;;;;5.82;2.75;;;;;;;;;;10405152;28;20431;-58
2023/05/19 09:06:45;;;;;;;6.93;2.90;;;;;;;;;;10391189;28;20021;-57
2023/05/19 09:11:46;;;;;;;3.83;2.75;;;;;;;;;;10388416;28;20026;-57
2023/05/19 09:16:49;;;;;;;6.10;2.70;;;;;;;;;;10399928;28;20024;-58
2023/05/19 09:21:59;;;;;;;6.13;2.95;;;;;;;;;;10392035;28;20592;-57
2023/05/19 09:26:59;;;;;;;3.83;2.22;;;;;;;;;;10391518;28;20018;-58
2023/05/19 09:32:03;;;;;;;7.13;2.83;;;;;;;;;;10397011;28;20373;-58
2023/05/19 09:37:03;;;;;;;5.88;2.75;;;;;;;;;;10393960;28;20535;-58
2023/05/19 09:42:05;;;;;;;8.32;2.92;;;;;;;;;;10405957;28;20380;-58
2023/05/19 09:47:08;;;;;;;4.30;2.55;;;;;;;;;;10412167;28;20091;-58
2023/05/19 09:52:08;;;;;;;3.58;2.40;;;;;;;;;;10412175;28;20022;-57
2023/05/19 09:57:09;;;;;;;6.63;2.67;;;;;;;;;;10412102;28;20468;-57
2023/05/19 10:02:14;;;;;;;2.75;2.38;;;;;;;;;;10412105;28;20478;-57
2023/05/19 10:07:16;;;;;;;4.78;2.70;;;;;;;;;;10412038;28;20025;-61
2023/05/19 10:12:17;;;;;;;4.72;2.60;;;;;;;;;;10404261;28;20034;-59
2023/05/19 10:17:17;;;;;;;4.40;2.78;;;;;;;;;;10410005;28;20450;-57
2023/05/19 10:22:18;;;;;;;3.08;2.50;;;;;;;;;;10410192;28;20389;-60
2023/05/19 10:27:18;;;;;;;7.73;2.77;;;;;;;;;;10401074;28;20022;-60
2023/05/19 10:32:22;;;;;;;2.88;2.42;;;;;;;;;;10406942;28;20450;-61
2023/05/19 10:37:27;;;;;;;3.25;2.75;;;;;;;;;;10408526;28;20029;-60
2023/05/19 10:42:45;;;;;;;3.28;2.35;;;;;;;;;;10410024;28;20040;-60
2023/05/19 10:47:45;;;;;;;3.45;2.70;;;;;;;;;;10386031;28;20535;-59
2023/05/19 10:52:52;;;;;;;3.47;2.50;;;;;;;;;;10408425;28;20025;-60
2023/05/19 10:57:55;;;;;;;2.47;2.20;;;;;;;;;;10408711;28;20040;-60
2023/05/19 11:03:15;;;;;;;4.50;2.92;;;;;;;;;;10404875;28;20029;-60
2023/05/19 11:08:16;;;;;;;3.78;2.60;;;;;;;;;;10393865;28;20072;-60
2023/05/19 11:13:20;;;;;;;3.30;2.58;;;;;;;;;;10396681;28;20105;-60
2023/05/19 11:18:20;;;;;;;2.42;2.20;;;;;;;;;;10404749;28;20366;-60
2023/05/19 11:23:24;;;;;;;5.20;2.67;;;;;;;;;;10408372;28;20029;-60
2023/05/19 11:28:26;;;;;;;3.13;2.72;;;;;;;;;;10394667;28;20025;-60
2023/05/19 11:33:27;;;;;;;4.25;2.92;;;;;;;;;;10404195;28;20049;-61
2023/05/19 11:38:28;;;;;;;5.27;2.50;;;;;;;;;;10399653;28;20025;-60
2023/05/19 11:43:29;;;;;;;3.80;2.30;;;;;;;;;;10405419;28;20467;-60
2023/05/19 11:48:29;;;;;;;3.75;2.50;;;;;;;;;;10392948;28;20045;-60
2023/05/19 11:53:30;;;;;;;3.65;2.60;;;;;;;;;;10408019;28;20701;-59
2023/05/19 11:58:31;;;;;;;2.45;2.20;;;;;;;;;;10407183;28;20029;-60
2023/05/19 12:03:31;;;;;;;6.23;2.97;;;;;;;;;;10408541;28;20468;-60
2023/05/19 12:08:32;;;;;;;3.13;2.42;;;;;;;;;;10400792;28;20454;-60
2023/05/19 12:13:32;;;;;;;2.80;2.53;;;;;;;;;;10407905;28;20034;-60
2023/05/19 12:18:36;;;;;;;3.33;2.28;;;;;;;;;;10406280;28;20458;-60
2023/05/19 12:23:37;;;;;;;2.97;2.35;;;;;;;;;;10398489;28;20018;-60
2023/05/19 12:28:38;;;;;;;4.68;2.53;;;;;;;;;;10403522;28;20363;-60
2023/05/19 12:33:38;;;;;;;5.40;2.50;;;;;;;;;;10393638;28;20033;-60
2023/05/19 12:38:41;;;;;;;3.28;2.50;;;;;;;;;;10400768;28;20463;-60
2023/05/19 12:43:41;;;;;;;6.82;2.75;;;;;;;;;;10395203;28;20099;-60
2023/05/19 12:48:43;;;;;;;3.97;2.60;;;;;;;;;;10403382;28;20059;-60
2023/05/19 12:53:44;;;;;;;4.97;2.53;;;;;;;;;;10404835;28;20040;-60
2023/05/19 12:58:44;;;;;;;4.80;2.40;;;;;;;;;;10405702;28;20022;-60
2023/05/19 13:03:45;;;;;;;3.28;2.40;;;;;;;;;;10405895;28;20372;-60
2023/05/19 13:08:46;;;;;;;2.38;2.17;;;;;;;;;;10398384;28;20025;-60
2023/05/19 13:13:46;;;;;;;2.72;2.40;;;;;;;;;;10389583;28;20032;-60
2023/05/19 13:18:46;;;;;;;6.85;2.42;;;;;;;;;;10378865;28;20026;-60
2023/05/19 13:23:47;;;;;;;6.90;2.10;;;;;;;;;;10403406;28;20036;-60
2023/05/19 13:28:47;;;;;;;5.03;1.90;;;;;;;;;;10403782;28;20500;-61
2023/05/19 13:33:48;;;;;;;3.20;1.98;;;;;;;;;;10403635;28;20474;-60
2023/05/19 13:38:48;;;;;;;6.93;2.20;;;;;;;;;;10404330;28;20024;-60
2023/05/19 13:43:49;;;;;;;6.97;1.93;;;;;;;;;;10403494;28;21048;-61
2023/05/19 13:48:49;;;;;;;5.88;1.75;;;;;;;;;;10398804;28;20456;-60
2023/05/19 13:53:50;;;;;;;4.90;1.90;;;;;;;;;;10386419;28;20032;-60
2023/05/19 13:58:50;;;;;;;9.63;2.10;;;;;;;;;;10403954;28;20133;-61
2023/05/19 14:03:51;;;;;;;4.65;2.22;;;;;;;;;;10404339;28;20424;-60
2023/05/19 14:08:51;;;;;;;3.20;1.60;;;;;;;;;;10383527;28;20033;-60
2023/05/19 14:13:52;;;;;;;8.65;2.05;;;;;;;;;;10391369;28;20202;-60
2023/05/19 14:18:52;;;;;;;2.00;1.80;;;;;;;;;;10406907;28;20247;-62
2023/05/19 14:23:52;;;;;;;4.53;1.70;;;;;;;;;;10401128;28;20385;-60
2023/05/19 14:28:53;;;;;;;1.90;1.70;;;;;;;;;;10374344;28;20459;-60
2023/05/19 14:33:53;;;;;;;1.87;1.73;;;;;;;;;;10381329;28;20565;-61
2023/05/19 14:38:54;;;;;;;1.60;1.50;;;;;;;;;;10410676;28;20454;-60
2023/05/19 14:43:55;;;;;;;2.73;1.90;;;;;;;;;;10409442;28;20455;-60
2023/05/19 14:48:55;;;;;;;3.60;1.80;;;;;;;;;;10406812;28;20462;-60
2023/05/19 14:53:55;;;;;;;1.67;1.55;;;;;;;;;;10405180;28;20072;-60
2023/05/19 14:58:56;;;;;;;3.33;1.67;;;;;;;;;;10405181;28;20025;-59
2023/05/19 15:03:56;;;;;;;6.30;1.92;;;;;;;;;;10406202;28;20045;-60
2023/05/19 15:08:57;;;;;;;2.30;1.43;;;;;;;;;;10398809;28;20076;-60
2023/05/19 15:13:57;;;;;;;7.23;1.70;;;;;;;;;;10396835;28;20459;-60
2023/05/19 15:18:57;;;;;;;1.77;1.60;;;;;;;;;;10407311;28;20036;-60
2023/05/19 15:23:58;;;;;;;5.63;1.73;;;;;;;;;;10409936;28;20490;-60
2023/05/19 15:28:58;;;;;;;3.03;1.93;;;;;;;;;;10398822;28;20031;-60
2023/05/19 15:33:59;;;;;;;2.53;1.50;;;;;;;;;;10395589;28;20501;-60
2023/05/19 15:38:59;;;;;;;3.87;1.70;;;;;;;;;;10390769;28;20467;-60
2023/05/19 15:44:01;;;;;;;2.63;1.47;;;;;;;;;;10405711;28;20032;-60
2023/05/19 15:49:02;;;;;;;3.40;1.63;;;;;;;;;;10404621;28;20508;-60
2023/05/19 15:54:02;;;;;;;2.53;1.60;;;;;;;;;;10404782;28;20539;-60
2023/05/19 15:59:02;;;;;;;2.00;1.52;;;;;;;;;;10407125;28;20072;-57
2023/05/19 16:04:03;;;;;;;3.83;1.40;;;;;;;;;;10398715;28;20029;-58
2023/05/19 16:09:04;;;;;;;7.25;1.90;;;;;;;;;;10383003;28;20994;-57
2023/05/19 16:14:04;;;;;;;7.60;2.15;;;;;;;;;;10407632;28;20379;-58
2023/05/19 16:19:04;;;;;;;14.10;3.27;;;;;;;;;;10393958;28;20574;-58
2023/05/19 16:24:05;;;;;;;12.33;4.10;;;;;;;;;;10393929;28;20481;-58
2023/05/19 16:29:05;;;;;;;17.80;2.97;;;;;;;;;;10405420;28;20990;-58
2023/05/19 16:34:06;;;;;;;15.90;3.33;;;;;;;;;;10380326;28;20025;-58
2023/05/19 16:39:06;;;;;;;22.38;3.58;;;;;;;;;;10401330;28;21005;-57
2023/05/19 16:44:07;;;;;;;21.88;4.38;;;;;;;;;;10389816;28;20041;-57
2023/05/19 16:49:07;;;;;;;11.10;3.22;;;;;;;;;;10392775;28;20160;-57
2023/05/19 16:54:08;;;;;;;12.45;3.00;;;;;;;;;;10392059;28;20041;-57
2023/05/19 16:59:08;;;;;;;16.23;2.93;;;;;;;;;;10390179;28;20060;-57
2023/05/19 17:04:09;;;;;;;19.58;3.47;;;;;;;;;;10398940;28;20471;-57
2023/05/19 17:09:09;;;;;;;20.45;3.53;;;;;;;;;;10389847;28;20034;-57
2023/05/19 17:14:10;;;;;;;14.30;3.25;;;;;;;;;;10391997;28;20022;-57
2023/05/19 17:19:11;;;;;;;13.70;3.03;;;;;;;;;;10398419;28;20029;-58
2023/05/19 17:24:11;;;;;;;14.43;3.20;;;;;;;;;;10404097;28;20021;-58
2023/05/19 17:29:12;;;;;;;7.22;2.67;;;;;;;;;;10402251;28;20215;-58
2023/05/19 17:34:12;;;;;;;14.20;3.43;;;;;;;;;;10403453;28;20045;-57
2023/05/19 17:39:12;;;;;;;10.40;2.60;;;;;;;;;;10404847;28;20513;-57
2023/05/19 17:44:13;;;;;;;12.83;3.00;;;;;;;;;;10393531;28;20562;-58
2023/05/19 17:49:14;;;;;;;12.70;3.10;;;;;;;;;;10377456;28;20469;-58
2023/05/19 17:54:14;;;;;;;14.32;2.90;;;;;;;;;;10404063;28;20033;-58
2023/05/19 17:59:15;;;;;;;8.27;2.55;;;;;;;;;;10404213;28;20071;-58
2023/05/19 18:04:16;;;;;;;9.05;2.55;;;;;;;;;;10407568;28;20339;-58
2023/05/19 18:09:18;;;;;;;13.05;2.67;;;;;;;;;;10394385;28;20030;-57
2023/05/19 18:14:18;;;;;;;11.93;2.63;;;;;;;;;;10406971;28;20029;-58
2023/05/19 18:19:19;;;;;;;14.25;3.60;;;;;;;;;;10396167;28;20034;-58
2023/05/19 18:24:19;;;;;;;7.70;2.50;;;;;;;;;;10382165;28;20091;-58
2023/05/19 18:29:19;;;;;;;8.20;2.92;;;;;;;;;;10408441;28;20104;-59
2023/05/19 18:34:20;;;;;;;7.73;2.70;;;;;;;;;;10404054;28;20059;-58
2023/05/19 18:39:20;;;;;;;11.60;2.78;;;;;;;;;;10407077;28;20463;-58
2023/05/19 18:44:21;;;;;;;7.37;2.77;;;;;;;;;;10408771;28;20176;-57
2023/05/19 18:49:23;;;;;;;6.83;2.33;;;;;;;;;;10403957;28;20454;-58
2023/05/19 18:54:24;;;;;;;5.30;2.67;;;;;;;;;;10404363;28;20503;-60
2023/05/19 18:59:24;;;;;;;7.38;2.42;;;;;;;;;;10407395;28;20423;-60
2023/05/19 19:04:25;;;;;;;8.88;2.22;;;;;;;;;;10407362;28;20059;-58
2023/05/19 19:09:25;;;;;;;5.07;2.00;;;;;;;;;;10394463;28;20037;-58
2023/05/19 19:14:26;;;;;;;6.23;2.67;;;;;;;;;;10395389;28;20021;-58
2023/05/19 19:19:28;;;;;;;6.93;2.70;;;;;;;;;;10408078;28;20522;-58
2023/05/19 19:24:30;;;;;;;10.68;2.30;;;;;;;;;;10409225;28;20433;-57
2023/05/19 19:29:30;;;;;;;4.95;2.30;;;;;;;;;;10401520;28;20040;-60
2023/05/19 19:34:31;;;;;;;4.10;2.63;;;;;;;;;;10406406;28;20022;-60
2023/05/19 19:39:31;;;;;;;6.63;2.17;;;;;;;;;;10408332;28;20026;-60
2023/05/19 19:44:31;;;;;;;7.90;2.60;;;;;;;;;;10460628;22;20498;-70
2023/05/19 19:49:32;;;;;;;5.17;1.90;;;;;;;;;;10490270;28;20508;-68
2023/05/19 19:54:33;;;;;;;12.68;2.25;;;;;;;;;;10475960;28;20552;-68
2023/05/19 19:59:33;;;;;;;3.40;2.00;;;;;;;;;;10457083;28;20032;-69
2023/05/19 20:04:34;;;;;;;6.23;2.30;;;;;;;;;;10449346;28;20511;-68
2023/05/19 20:09:34;;;;;;;4.30;2.23;;;;;;;;;;10448101;28;20574;-68
2023/05/19 20:14:34;;;;;;;4.40;2.00;;;;;;;;;;10445198;28;21020;-68
2023/05/19 20:19:35;;;;;;;9.33;2.27;;;;;;;;;;10459937;28;20489;-69
2023/05/19 20:24:35;;;;;;;5.80;2.30;;;;;;;;;;10447743;28;20470;-69
2023/05/19 20:29:36;;;;;;;6.20;1.95;;;;;;;;;;10460041;28;21004;-67
2023/05/19 20:34:37;;;;;;;6.15;2.25;;;;;;;;;;10456213;28;20020;-68
2023/05/19 20:39:37;;;;;;;8.48;2.05;;;;;;;;;;10444832;28;20036;-66
2023/05/19 20:44:37;;;;;;;4.43;1.87;;;;;;;;;;10451134;28;20056;-68
2023/05/19 20:49:38;;;;;;;4.07;2.00;;;;;;;;;;10445690;28;20473;-67
2023/05/19 20:54:38;;;;;;;5.47;2.00;;;;;;;;;;10446895;28;21012;-68
2023/05/19 20:59:39;;;;;;;4.87;2.40;;;;;;;;;;10448970;28;20462;-69
2023/05/19 21:04:39;;;;;;;3.22;1.98;;;;;;;;;;10470540;28;21134;-68
2023/05/19 21:09:41;;;;;;;4.15;2.08;;;;;;;;;;10441213;28;20028;-67
2023/05/19 21:14:41;;;;;;;5.43;2.50;;;;;;;;;;10435551;28;20079;-68
2023/05/19 21:19:42;;;;;;;4.53;2.00;;;;;;;;;;10445904;28;20063;-70
2023/05/19 21:24:42;;;;;;;6.30;2.50;;;;;;;;;;10432686;28;20478;-70
2023/05/19 21:29:43;;;;;;;3.33;2.38;;;;;;;;;;10451894;28;20497;-73
2023/05/19 21:34:43;;;;;;;3.88;2.40;;;;;;;;;;10463173;28;20032;-74
2023/05/19 21:39:44;;;;;;;4.88;2.30;;;;;;;;;;10440277;28;20029;-70
2023/05/19 21:44:45;;;;;;;7.70;2.35;;;;;;;;;;10443450;28;20040;-75
2023/05/19 21:49:46;;;;;;;6.50;2.50;;;;;;;;;;10451130;28;20040;-75
2023/05/19 21:54:46;;;;;;;4.60;1.80;;;;;;;;;;10444636;28;20036;-73
2023/05/19 21:59:48;;;;;;;3.78;2.05;;;;;;;;;;10444271;28;20179;-72
2023/05/19 22:04:49;;;;;;;10.30;2.15;;;;;;;;;;10449018;28;20032;-74
2023/05/19 22:09:49;;;;;;;3.05;2.10;;;;;;;;;;10444188;28;20480;-72
2023/05/19 22:14:50;;;;;;;5.38;2.30;;;;;;;;;;10446730;28;20021;-73
2023/05/19 22:19:51;;;;;;;6.15;2.33;;;;;;;;;;10444304;28;20499;-76
2023/05/19 22:24:51;;;;;;;6.65;2.33;;;;;;;;;;10450430;28;20035;-74
2023/05/19 22:29:52;;;;;;;3.70;2.38;;;;;;;;;;10447692;28;20024;-70
2023/05/19 22:34:52;;;;;;;4.85;2.22;;;;;;;;;;10451223;28;20028;-70
2023/05/19 22:39:53;;;;;;;3.83;2.08;;;;;;;;;;10452169;28;20159;-71
2023/05/19 22:44:53;;;;;;;2.28;2.08;;;;;;;;;;10453143;28;20040;-71
2023/05/19 22:49:54;;;;;;;5.60;2.63;;;;;;;;;;10445840;28;20033;-71
2023/05/19 22:54:54;;;;;;;6.97;2.40;;;;;;;;;;10459270;28;20159;-71
2023/05/19 22:59:55;;;;;;;2.87;2.13;;;;;;;;;;10452625;28;20032;-73
2023/05/19 23:04:55;;;;;;;3.88;2.40;;;;;;;;;;10469498;28;20458;-71
2023/05/19 23:09:56;;;;;;;3.42;2.50;;;;;;;;;;10438362;28;20033;-71
2023/05/19 23:14:56;;;;;;;2.42;2.20;;;;;;;;;;10453319;28;20098;-72
2023/05/19 23:19:57;;;;;;;3.20;2.40;;;;;;;;;;10459879;28;20464;-72
2023/05/19 23:24:57;;;;;;;3.77;2.60;;;;;;;;;;10448207;28;20458;-72
2023/05/19 23:29:57;;;;;;;4.50;2.77;;;;;;;;;;10440669;28;20451;-72
2023/05/19 23:35:15;;;;;;;4.50;2.30;;;;;;;;;;10438498;28;20473;-73
2023/05/19 23:40:15;;;;;;;2.53;2.33;;;;;;;;;;10423371;28;20466;-76
2023/05/19 23:45:16;;;;;;;6.82;3.08;;;;;;;;;;10460299;28;20033;-75
2023/05/19 23:50:16;;;;;;;5.80;2.85;;;;;;;;;;10433066;28;20373;-74
2023/05/19 23:55:17;;;;;;;2.72;2.42;;;;;;;;;;10464957;28;20017;-74
